Time;durP1;ratioP1;P1;durP2;ratioP2;P2;SDS_P1;SDS_P2;PMS_P1;PMS_P2;Temp;Humidity;BMP_temperature;BMP_pressure;BME280_temperature;BME280_humidity;BME280_pressure;Samples;Min_cycle;Max_cycle;Signal;HPM_P1;HPM_P2
2020/12/15 05:19:05;;;;;;;6.90;4.28;;;0.50;99.90;;;;;;5433235;23;20460;-69
2020/12/15 05:21:31;;;;;;;9.30;3.63;;;0.50;99.90;;;;;;4889526;29;20110;-69
2020/12/15 05:23:58;;;;;;;5.70;3.83;;;0.50;99.90;;;;;;4896512;29;20365;-70
2020/12/15 05:26:24;;;;;;;7.40;4.57;;;0.50;99.90;;;;;;4889419;29;20417;-70
2020/12/15 05:29:07;;;;;;;6.00;4.45;;;0.50;99.90;;;;;;4891107;29;20385;-69
2020/12/15 05:31:41;;;;;;;8.13;4.95;;;0.50;99.90;;;;;;4890850;29;20060;-77
2020/12/15 05:34:12;;;;;;;6.45;4.30;;;0.50;99.90;;;;;;4896622;29;20425;-74
2020/12/15 05:36:54;;;;;;;8.55;4.20;;;0.50;99.90;;;;;;4896665;29;20104;-83
2020/12/15 05:39:21;;;;;;;7.97;4.30;;;0.50;99.90;;;;;;4884831;29;20043;-78
2020/12/15 05:41:50;;;;;;;7.15;4.40;;;0.60;99.90;;;;;;4896685;29;20036;-79
2020/12/15 05:44:27;;;;;;;15.23;6.20;;;0.70;99.90;;;;;;4883444;29;20025;-81
2020/12/15 05:46:58;;;;;;;7.28;4.72;;;0.70;99.90;;;;;;4896612;29;20468;-81
2020/12/15 05:49:28;;;;;;;6.18;4.15;;;0.60;99.90;;;;;;4880364;29;20043;-84
2020/12/15 05:51:55;;;;;;;8.05;4.88;;;0.60;99.90;;;;;;4894013;29;20053;-82
2020/12/15 05:54:21;;;;;;;6.90;4.45;;;0.60;99.90;;;;;;4886457;29;20057;-77
2020/12/15 05:56:47;;;;;;;6.47;4.50;;;0.60;99.90;;;;;;4887271;29;20016;-77
2020/12/15 05:59:20;;;;;;;6.53;4.25;;;0.50;99.90;;;;;;4893497;29;20056;-77
2020/12/15 06:01:51;;;;;;;5.50;4.20;;;0.50;99.90;;;;;;4888389;29;20401;-78
2020/12/15 06:04:18;;;;;;;6.03;4.10;;;0.60;99.90;;;;;;4894702;29;20032;-78
2020/12/15 06:06:45;;;;;;;7.85;4.70;;;0.60;99.90;;;;;;4891428;29;20063;-89
2020/12/15 06:09:15;;;;;;;6.30;4.10;;;0.60;99.90;;;;;;4895880;29;20032;-79
2020/12/15 06:11:42;;;;;;;;;;;0.60;99.90;;;;;;4888300;29;20107;-79
2020/12/15 06:14:10;;;;;;;5.70;4.18;;;0.60;99.90;;;;;;4898516;29;20566;-83
2020/12/15 06:16:36;;;;;;;5.03;3.90;;;0.60;99.90;;;;;;4897188;29;20040;-86
2020/12/15 06:19:06;;;;;;;8.52;4.68;;;0.60;99.90;;;;;;4899210;29;20045;-81
2020/12/15 06:21:34;;;;;;;8.15;4.55;;;0.60;99.90;;;;;;4865596;29;20030;-79
2020/12/15 06:24:02;;;;;;;7.72;4.13;;;0.60;99.90;;;;;;4878307;29;20040;-77
2020/12/15 06:26:29;;;;;;;9.40;4.78;;;0.70;99.90;;;;;;4878077;29;20028;-77
2020/12/15 06:28:59;;;;;;;7.95;4.65;;;0.80;99.90;;;;;;4880287;29;20084;-77
2020/12/15 06:31:25;;;;;;;7.65;4.75;;;0.80;99.90;;;;;;4881268;29;20060;-77
2020/12/15 06:33:55;;;;;;;9.48;4.55;;;0.80;99.90;;;;;;4881297;29;20461;-80
2020/12/15 06:36:25;;;;;;;;;;;0.70;99.90;;;;;;4881873;29;20048;-77
2020/12/15 06:38:51;;;;;;;8.95;4.88;;;0.70;99.90;;;;;;4881169;29;20283;-77
2020/12/15 06:41:21;;;;;;;8.60;4.53;;;0.70;99.90;;;;;;4881126;29;20033;-77
2020/12/15 06:43:47;;;;;;;9.35;4.88;;;0.80;99.90;;;;;;4884818;29;20044;-78
2020/12/15 06:46:13;;;;;;;7.25;4.15;;;0.80;99.90;;;;;;4886476;29;20036;-76
2020/12/15 06:48:42;;;;;;;6.10;4.20;;;0.80;99.90;;;;;;4867966;29;20026;-76
2020/12/15 06:51:08;;;;;;;8.40;4.68;;;0.70;99.90;;;;;;4886984;29;20020;-86
2020/12/15 06:53:34;;;;;;;6.68;4.65;;;0.70;99.90;;;;;;4878517;29;20382;-78
2020/12/15 06:56:03;;;;;;;8.07;5.30;;;0.80;99.90;;;;;;4871893;29;20101;-75
2020/12/15 06:58:29;;;;;;;8.60;5.78;;;0.80;99.90;;;;;;4883690;29;20036;-75
2020/12/15 07:00:56;;;;;;;8.90;5.20;;;0.80;99.90;;;;;;4877403;29;20021;-75
2020/12/15 07:03:54;;;;;;;10.38;5.60;;;0.70;99.90;;;;;;4877219;29;20037;-79
2020/12/15 07:06:19;;;;;;;10.48;5.35;;;0.90;99.90;;;;;;4885951;29;20112;-80
2020/12/15 07:09:09;;;;;;;10.10;5.47;;;1.00;99.90;;;;;;4882674;29;20120;-84
2020/12/15 07:11:35;;;;;;;8.90;6.00;;;1.10;99.90;;;;;;4887212;29;20076;-72
2020/12/15 07:14:04;;;;;;;11.52;5.50;;;1.00;99.90;;;;;;4890941;29;20127;-71
2020/12/15 07:16:31;;;;;;;13.32;6.63;;;1.00;99.90;;;;;;4874083;29;20362;-68
2020/12/15 07:18:56;;;;;;;14.43;7.68;;;0.90;99.90;;;;;;4876372;29;20044;-72
2020/12/15 07:21:23;;;;;;;10.00;5.78;;;0.90;99.90;;;;;;4872874;29;20533;-78
2020/12/15 07:23:52;;;;;;;7.65;4.97;;;0.90;99.90;;;;;;4877268;29;20030;-81
2020/12/15 07:26:19;;;;;;;13.05;5.93;;;0.90;99.90;;;;;;4875320;29;20029;-71
2020/12/15 07:28:48;;;;;;;11.35;6.90;;;0.90;99.90;;;;;;4884121;29;20116;-76
2020/12/15 07:31:24;;;;;;;10.10;6.15;;;0.90;99.90;;;;;;4882722;29;20048;-81
2020/12/15 07:33:49;;;;;;;10.05;6.22;;;0.90;99.90;;;;;;4884109;29;20058;-86
2020/12/15 07:36:16;;;;;;;10.77;5.72;;;0.90;99.90;;;;;;4884892;29;20040;-86
2020/12/15 07:38:44;;;;;;;11.10;7.10;;;0.90;99.90;;;;;;4886969;29;20040;-82
2020/12/15 07:41:16;;;;;;;12.02;6.35;;;0.80;99.90;;;;;;4887210;29;20025;-80
2020/12/15 07:43:55;;;;;;;12.38;6.65;;;0.90;99.90;;;;;;4883819;29;20413;-80
2020/12/15 07:46:23;;;;;;;12.80;7.78;;;0.80;99.90;;;;;;4892319;29;20032;-81
2020/12/15 07:48:53;;;;;;;15.38;6.93;;;0.90;99.90;;;;;;4884274;29;20044;-77
2020/12/15 07:51:19;;;;;;;12.95;7.72;;;0.90;99.90;;;;;;4889485;29;20058;-77
2020/12/15 07:53:59;;;;;;;14.13;7.05;;;0.90;99.90;;;;;;4892997;29;20033;-78
2020/12/15 07:56:25;;;;;;;15.63;8.07;;;0.90;99.90;;;;;;4883625;29;20111;-76
2020/12/15 07:58:53;;;;;;;11.40;7.47;;;1.00;99.90;;;;;;4887969;29;20035;-78
2020/12/15 08:01:26;;;;;;;12.57;6.78;;;1.00;99.90;;;;;;4892835;29;20224;-83
2020/12/15 08:04:13;;;;;;;24.60;7.47;;;1.00;99.90;;;;;;4889400;29;20097;-73
2020/12/15 08:06:43;;;;;;;15.20;7.80;;;1.00;99.90;;;;;;4889260;29;20021;-71
2020/12/15 08:09:11;;;;;;;20.40;7.63;;;1.20;99.90;;;;;;4889322;29;20033;-74
2020/12/15 08:11:42;;;;;;;14.38;8.10;;;1.30;99.90;;;;;;4886707;29;20032;-74
2020/12/15 08:14:08;;;;;;;13.48;7.85;;;1.30;99.90;;;;;;4888992;29;20048;-74
2020/12/15 08:16:36;;;;;;;17.20;8.65;;;1.60;99.90;;;;;;4880115;29;20474;-73
2020/12/15 08:19:03;;;;;;;15.02;8.55;;;1.90;99.90;;;;;;4890449;29;20416;-71
2020/12/15 08:21:46;;;;;;;14.25;7.00;;;2.00;99.90;;;;;;4871727;29;20029;-70
2020/12/15 08:24:14;;;;;;;14.55;8.65;;;1.80;99.90;;;;;;4873965;29;20042;-74
2020/12/15 08:26:41;;;;;;;17.88;9.00;;;1.50;99.90;;;;;;4872214;29;20033;-75
2020/12/15 08:29:12;;;;;;;15.02;8.43;;;1.60;99.90;;;;;;4870374;29;20029;-74
2020/12/15 08:31:42;;;;;;;15.00;8.02;;;1.60;99.90;;;;;;4874546;29;20029;-74
2020/12/15 08:34:15;;;;;;;13.55;7.80;;;1.60;99.90;;;;;;4879045;29;20554;-74
2020/12/15 08:36:49;;;;;;;13.38;8.18;;;1.80;99.90;;;;;;4878614;29;20028;-74
2020/12/15 08:39:19;;;;;;;13.88;7.40;;;2.00;99.90;;;;;;4878868;29;20043;-74
2020/12/15 08:41:58;;;;;;;14.07;8.40;;;1.90;99.90;;;;;;4879031;29;20081;-75
2020/12/15 08:44:25;;;;;;;10.00;6.78;;;1.80;99.90;;;;;;4886808;29;20037;-75
2020/12/15 08:46:55;;;;;;;13.93;7.88;;;1.90;99.90;;;;;;4890290;29;20021;-75
2020/12/15 08:49:22;;;;;;;17.45;8.40;;;2.00;99.90;;;;;;4891521;29;20036;-75
2020/12/15 08:51:50;;;;;;;10.05;6.97;;;2.00;99.90;;;;;;4888328;29;20600;-75
2020/12/15 08:54:19;;;;;;;11.40;6.82;;;2.00;99.90;;;;;;4877544;29;20032;-75
2020/12/15 08:56:45;;;;;;;12.35;7.35;;;2.00;99.90;;;;;;4861344;29;20453;-75
2020/12/15 08:59:16;;;;;;;11.45;7.85;;;2.00;99.90;;;;;;4873596;29;20030;-74
2020/12/15 09:01:42;;;;;;;;;;;1.90;99.90;;;;;;4861360;29;20026;-75
2020/12/15 09:04:09;;;;;;;15.80;8.15;;;1.90;99.90;;;;;;4861871;29;19912;-74
2020/12/15 09:06:37;;;;;;;14.98;7.45;;;1.90;99.90;;;;;;4860682;29;20050;-74
2020/12/15 09:09:04;;;;;;;14.20;7.95;;;2.00;99.90;;;;;;4861800;29;20021;-74
2020/12/15 09:11:30;;;;;;;10.82;7.22;;;2.10;99.90;;;;;;4868282;29;20037;-75
2020/12/15 09:13:57;;;;;;;14.75;8.35;;;2.00;99.90;;;;;;4866579;29;20509;-74
2020/12/15 09:16:25;;;;;;;12.73;7.80;;;2.00;99.90;;;;;;4860850;29;20025;-74
2020/12/15 09:18:51;;;;;;;14.15;7.50;;;2.00;99.90;;;;;;4858983;29;20470;-74
2020/12/15 09:21:18;;;;;;;10.85;6.65;;;2.00;99.90;;;;;;4873679;29;20053;-74
2020/12/15 09:23:54;;;;;;;12.80;7.95;;;2.10;99.90;;;;;;4878190;29;20480;-74
2020/12/15 09:26:21;;;;;;;11.55;7.20;;;2.10;99.90;;;;;;4868641;29;20030;-75
2020/12/15 09:28:48;;;;;;;11.68;7.10;;;2.10;99.90;;;;;;4877910;29;20076;-73
2020/12/15 09:31:15;;;;;;;14.30;6.80;;;2.10;99.90;;;;;;4878302;29;20035;-74
2020/12/15 09:33:41;;;;;;;16.35;7.72;;;2.10;99.90;;;;;;4884450;29;20040;-74
2020/12/15 09:36:08;;;;;;;15.13;7.18;;;2.10;99.90;;;;;;4892009;29;20535;-75
2020/12/15 09:38:33;;;;;;;15.27;6.93;;;2.10;99.90;;;;;;4890418;29;20393;-84
2020/12/15 09:40:59;;;;;;;13.27;6.53;;;2.00;99.90;;;;;;4890193;29;20029;-86
2020/12/15 09:43:25;;;;;;;16.05;6.57;;;1.90;99.90;;;;;;4890666;29;20064;-85
2020/12/15 09:45:51;;;;;;;15.82;6.57;;;1.90;99.90;;;;;;4886173;29;20053;-83
2020/12/15 09:48:18;;;;;;;21.42;7.72;;;1.80;99.90;;;;;;4887974;29;20429;-82
2020/12/15 09:50:44;;;;;;;14.48;7.50;;;1.80;99.90;;;;;;4889645;29;20833;-83
2020/12/15 09:53:10;;;;;;;16.05;7.72;;;1.80;99.90;;;;;;4890477;29;20033;-85
2020/12/15 09:55:36;;;;;;;17.08;7.70;;;1.70;99.90;;;;;;4884286;29;20056;-87
2020/12/15 09:58:02;;;;;;;13.63;7.30;;;1.70;99.90;;;;;;4887154;29;20160;-83
2020/12/15 10:00:28;;;;;;;13.13;6.95;;;1.70;99.90;;;;;;4878472;29;20039;-84
2020/12/15 10:02:53;;;;;;;21.30;8.30;;;1.70;99.90;;;;;;4885620;29;20033;-83
2020/12/15 10:05:19;;;;;;;12.82;8.60;;;1.70;99.90;;;;;;4889148;29;20029;-85
2020/12/15 10:07:45;;;;;;;13.85;7.65;;;1.70;99.90;;;;;;4877591;29;20457;-84
2020/12/15 10:10:14;;;;;;;11.98;7.00;;;1.70;99.90;;;;;;4883191;29;20021;-82
2020/12/15 10:12:40;;;;;;;17.57;7.90;;;1.70;99.90;;;;;;4887336;29;20029;-83
2020/12/15 10:15:06;;;;;;;17.55;7.95;;;1.70;99.90;;;;;;4884944;29;20160;-82
2020/12/15 10:17:32;;;;;;;13.50;7.70;;;1.70;99.90;;;;;;4883909;29;20392;-84
2020/12/15 10:19:58;;;;;;;11.15;7.25;;;1.70;99.90;;;;;;4888655;29;20064;-85
2020/12/15 10:22:25;;;;;;;15.15;7.63;;;1.70;99.90;;;;;;4887648;29;20037;-85
2020/12/15 10:24:51;;;;;;;13.93;6.90;;;1.70;99.90;;;;;;4890738;29;20033;-82
2020/12/15 10:27:17;;;;;;;15.63;7.63;;;1.70;99.90;;;;;;4885796;29;20027;-84
2020/12/15 10:29:42;;;;;;;15.20;7.38;;;1.70;99.90;;;;;;4889045;29;20052;-88
2020/12/15 10:32:08;;;;;;;11.10;7.03;;;1.70;99.90;;;;;;4887568;29;20545;-88
2020/12/15 10:34:34;;;;;;;11.48;6.78;;;1.70;99.90;;;;;;4888067;29;20113;-86
2020/12/15 10:37:00;;;;;;;11.15;7.20;;;1.70;99.90;;;;;;4882619;29;20081;-88
2020/12/15 10:39:25;;;;;;;12.73;7.28;;;1.70;99.90;;;;;;4882493;29;20029;-83
2020/12/15 10:41:51;;;;;;;16.75;7.93;;;1.70;99.90;;;;;;4874962;29;20025;-83
2020/12/15 10:44:17;;;;;;;14.18;7.13;;;1.70;99.90;;;;;;4876308;29;20077;-83
2020/12/15 10:46:44;;;;;;;12.38;7.18;;;1.70;99.90;;;;;;4874201;29;20072;-83
2020/12/15 10:49:10;;;;;;;13.10;7.15;;;1.70;99.90;;;;;;4870836;29;20025;-83
2020/12/15 10:51:39;;;;;;;9.70;6.40;;;1.70;99.90;;;;;;4873396;29;20435;-84
2020/12/15 10:54:06;;;;;;;13.15;7.22;;;1.70;99.90;;;;;;4875708;29;20034;-83
2020/12/15 10:56:31;;;;;;;16.08;7.43;;;1.70;99.90;;;;;;4873233;29;20021;-82
2020/12/15 10:58:58;;;;;;;11.68;6.90;;;1.70;99.90;;;;;;4880433;29;20040;-81
2020/12/15 11:01:24;;;;;;;12.02;7.13;;;1.70;99.90;;;;;;4880845;29;20021;-82
2020/12/15 11:03:50;;;;;;;8.65;6.15;;;1.70;99.90;;;;;;4866369;29;20084;-81
2020/12/15 11:06:16;;;;;;;12.68;7.07;;;1.70;99.90;;;;;;4862495;29;20041;-81
2020/12/15 11:08:41;;;;;;;11.45;7.30;;;1.70;99.90;;;;;;4862110;29;20055;-82
2020/12/15 11:11:10;;;;;;;11.90;7.50;;;1.70;99.90;;;;;;4866093;29;20036;-82
2020/12/15 11:13:36;;;;;;;13.23;7.72;;;1.70;99.90;;;;;;4880769;29;20044;-82
2020/12/15 11:16:02;;;;;;;9.68;6.50;;;1.70;99.90;;;;;;4876690;29;20029;-83
2020/12/15 11:18:28;;;;;;;12.15;7.35;;;1.70;99.90;;;;;;4871614;29;20041;-83
2020/12/15 11:20:53;;;;;;;12.98;6.88;;;1.70;99.90;;;;;;4880305;29;20485;-84
2020/12/15 11:23:19;;;;;;;14.20;7.00;;;1.70;99.90;;;;;;4872911;29;20503;-83
2020/12/15 11:25:47;;;;;;;10.70;6.57;;;1.70;99.90;;;;;;4875401;29;20032;-87
2020/12/15 11:28:13;;;;;;;13.32;7.32;;;1.60;99.90;;;;;;4877082;29;20033;-83
2020/12/15 11:30:39;;;;;;;10.73;6.45;;;1.60;99.90;;;;;;4880007;29;20037;-82
2020/12/15 11:33:05;;;;;;;11.57;6.85;;;1.60;99.90;;;;;;4887233;29;20047;-81
2020/12/15 11:35:33;;;;;;;13.27;6.40;;;1.60;99.90;;;;;;4869958;29;20024;-82
2020/12/15 11:38:00;;;;;;;10.23;6.32;;;1.60;99.90;;;;;;4876503;29;20053;-84
2020/12/15 11:40:26;;;;;;;12.43;7.53;;;1.60;99.90;;;;;;4880201;29;20030;-82
2020/12/15 11:42:58;;;;;;;11.80;6.10;;;1.60;99.90;;;;;;4879850;29;20033;-83
2020/12/15 11:45:25;;;;;;;11.00;7.03;;;1.60;99.90;;;;;;4874670;29;20025;-83
2020/12/15 11:47:51;;;;;;;14.38;7.03;;;1.60;99.90;;;;;;4879716;29;20029;-83
2020/12/15 11:50:18;;;;;;;14.32;7.53;;;1.60;99.90;;;;;;4879603;29;20029;-82
2020/12/15 11:52:44;;;;;;;12.25;5.85;;;1.60;99.90;;;;;;4874352;29;20070;-83
2020/12/15 11:55:10;;;;;;;11.95;6.30;;;1.60;99.90;;;;;;4874489;29;20025;-83
2020/12/15 11:57:36;;;;;;;8.25;4.45;;;1.60;99.90;;;;;;4869432;29;20414;-83
2020/12/15 12:00:04;;;;;;;6.43;4.63;;;1.60;99.90;;;;;;4888404;29;20028;-81
2020/12/15 12:02:30;;;;;;;6.55;4.63;;;1.60;99.90;;;;;;4863761;29;20054;-76
2020/12/15 12:04:56;;;;;;;5.50;3.72;;;1.60;99.90;;;;;;4869710;29;20033;-78
2020/12/15 12:07:22;;;;;;;6.00;4.15;;;1.60;99.90;;;;;;4894295;29;20139;-81
2020/12/15 12:09:47;;;;;;;10.23;4.07;;;1.60;99.90;;;;;;4886181;29;20060;-78
2020/12/15 12:12:14;;;;;;;6.95;4.15;;;1.60;99.90;;;;;;4890297;29;20048;-78
2020/12/15 12:14:39;;;;;;;6.00;3.67;;;1.60;99.90;;;;;;4883618;29;20068;-76
2020/12/15 12:17:05;;;;;;;7.65;4.03;;;1.60;99.90;;;;;;4876357;29;20036;-77
2020/12/15 12:19:31;;;;;;;5.07;3.30;;;1.60;99.90;;;;;;4872676;29;20049;-76
2020/12/15 12:21:57;;;;;;;4.38;3.25;;;1.70;99.90;;;;;;4882650;29;20029;-77
2020/12/15 12:24:22;;;;;;;4.90;3.50;;;1.60;99.90;;;;;;4887529;29;20028;-76
2020/12/15 12:26:51;;;;;;;3.60;2.88;;;1.60;99.90;;;;;;4889002;29;20036;-77
2020/12/15 12:29:18;;;;;;;8.48;2.78;;;1.60;99.90;;;;;;4889806;29;20472;-74
2020/12/15 12:31:50;;;;;;;5.20;3.20;;;1.60;99.90;;;;;;4881725;29;20462;-76
2020/12/15 12:34:17;;;;;;;4.85;3.20;;;1.70;99.90;;;;;;4890648;29;20405;-76
2020/12/15 12:36:44;;;;;;;6.40;3.85;;;1.70;99.90;;;;;;4885597;29;20017;-77
2020/12/15 12:39:10;;;;;;;5.40;3.60;;;1.70;99.90;;;;;;4895089;29;20119;-76
2020/12/15 12:41:36;;;;;;;6.18;3.42;;;1.70;99.90;;;;;;4896114;29;20477;-75
2020/12/15 12:44:02;;;;;;;5.55;3.13;;;1.60;99.90;;;;;;4889817;29;20024;-76
2020/12/15 12:46:28;;;;;;;4.93;3.33;;;1.60;99.90;;;;;;4894528;29;20037;-75
2020/12/15 12:48:54;;;;;;;6.57;4.22;;;1.60;99.90;;;;;;4893184;29;20120;-73
2020/12/15 12:51:19;;;;;;;10.02;3.60;;;1.60;99.90;;;;;;4886277;29;20495;-73
2020/12/15 12:53:45;;;;;;;5.50;3.97;;;1.60;99.90;;;;;;4888667;29;20032;-73
2020/12/15 12:56:12;;;;;;;4.25;3.22;;;1.70;99.90;;;;;;4890319;29;20357;-73
2020/12/15 12:58:38;;;;;;;6.82;3.75;;;1.70;99.90;;;;;;4874601;29;20056;-73
2020/12/15 13:01:05;;;;;;;5.22;3.83;;;1.70;99.90;;;;;;4879073;29;20024;-73
2020/12/15 13:03:31;;;;;;;7.45;3.80;;;1.70;99.90;;;;;;4879738;29;20060;-75
2020/12/15 13:05:57;;;;;;;6.57;4.30;;;1.70;99.90;;;;;;4868673;29;20057;-72
2020/12/15 13:08:23;;;;;;;7.15;4.18;;;1.70;99.90;;;;;;4872620;29;20056;-74
2020/12/15 13:10:48;;;;;;;7.05;3.95;;;1.70;99.90;;;;;;4882667;29;20489;-75
2020/12/15 13:13:14;;;;;;;8.30;4.68;;;1.70;99.90;;;;;;4892654;29;20040;-75
2020/12/15 13:15:40;;;;;;;6.85;3.70;;;1.70;99.90;;;;;;4891686;29;20052;-74
2020/12/15 13:18:07;;;;;;;8.27;4.47;;;1.70;99.90;;;;;;4883793;29;20389;-75
2020/12/15 13:20:33;;;;;;;6.65;4.35;;;1.70;99.90;;;;;;4872349;29;20041;-75
2020/12/15 13:22:59;;;;;;;8.10;3.80;;;1.70;99.90;;;;;;4860892;29;20397;-75
2020/12/15 13:25:25;;;;;;;10.65;3.97;;;1.80;99.90;;;;;;4865257;29;20040;-75
2020/12/15 13:27:51;;;;;;;5.75;3.88;;;1.80;99.90;;;;;;4866560;29;20033;-73
2020/12/15 13:30:17;;;;;;;7.28;4.97;;;1.80;99.90;;;;;;4877466;29;20033;-74
2020/12/15 13:32:43;;;;;;;11.30;4.22;;;1.80;99.90;;;;;;4877337;29;20048;-74
2020/12/15 13:35:09;;;;;;;8.35;4.07;;;1.80;99.90;;;;;;4877796;29;20021;-74
2020/12/15 13:37:34;;;;;;;7.75;5.93;;;1.80;99.90;;;;;;4877278;29;20374;-74
2020/12/15 13:40:00;;;;;;;5.13;3.80;;;2.20;99.90;;;;;;4877696;29;20041;-76
2020/12/15 13:42:26;;;;;;;10.07;3.40;;;2.50;99.90;;;;;;4877862;29;20049;-76
2020/12/15 13:44:53;;;;;;;5.18;3.40;;;2.30;99.90;;;;;;4881810;29;20032;-77
2020/12/15 13:47:19;;;;;;;7.28;3.58;;;2.10;99.90;;;;;;4875654;29;20428;-74
2020/12/15 13:49:48;;;;;;;5.65;2.92;;;2.00;99.90;;;;;;4889577;29;20143;-74
2020/12/15 13:52:14;;;;;;;5.18;3.60;;;2.00;99.90;;;;;;4870062;29;20095;-76
2020/12/15 13:54:40;;;;;;;4.57;3.42;;;1.90;99.90;;;;;;4888374;29;20033;-76
2020/12/15 13:57:06;;;;;;;6.78;3.85;;;1.90;99.90;;;;;;4870267;29;20037;-79
2020/12/15 13:59:31;;;;;;;6.88;3.33;;;1.90;99.90;;;;;;4890453;29;20362;-75
2020/12/15 14:01:57;;;;;;;9.52;4.05;;;1.90;99.90;;;;;;4891356;29;20028;-76
2020/12/15 14:04:23;;;;;;;5.57;3.28;;;1.90;99.90;;;;;;4887026;29;20116;-73
2020/12/15 14:06:48;;;;;;;4.30;3.03;;;1.80;99.90;;;;;;4889564;29;20028;-74
2020/12/15 14:09:14;;;;;;;6.95;3.35;;;1.90;99.90;;;;;;4877742;29;20036;-74
2020/12/15 14:11:40;;;;;;;5.03;3.25;;;1.80;99.90;;;;;;4885097;29;20033;-74
2020/12/15 14:14:06;;;;;;;4.97;3.30;;;1.80;99.90;;;;;;4879306;29;20604;-74
2020/12/15 14:16:32;;;;;;;7.07;3.83;;;1.80;99.90;;;;;;4878455;29;20029;-74
2020/12/15 14:18:58;;;;;;;6.40;3.83;;;1.80;99.90;;;;;;4876142;29;20409;-75
2020/12/15 14:21:23;;;;;;;7.68;3.55;;;1.80;99.90;;;;;;4866362;29;20022;-73
2020/12/15 14:23:49;;;;;;;6.97;3.78;;;1.80;99.90;;;;;;4871429;29;20037;-74
2020/12/15 14:26:16;;;;;;;4.35;3.17;;;1.80;99.90;;;;;;4869908;29;20021;-73
2020/12/15 14:28:42;;;;;;;5.47;3.38;;;1.80;99.90;;;;;;4881428;29;20025;-73
2020/12/15 14:31:07;;;;;;;3.40;2.90;;;1.90;99.90;;;;;;4879884;29;20048;-74
2020/12/15 14:33:33;;;;;;;5.20;3.53;;;1.90;99.90;;;;;;4882975;29;20048;-74
2020/12/15 14:35:59;;;;;;;7.03;3.80;;;1.90;99.90;;;;;;4887008;29;20028;-74
2020/12/15 14:38:26;;;;;;;6.85;3.55;;;1.90;99.90;;;;;;4891454;29;20036;-75
2020/12/15 14:40:53;;;;;;;5.15;3.72;;;1.90;99.90;;;;;;4890516;29;20028;-76
2020/12/15 14:43:19;;;;;;;6.03;3.75;;;1.90;99.90;;;;;;4887238;29;20033;-74
2020/12/15 14:45:44;;;;;;;5.32;3.53;;;1.90;99.90;;;;;;4888531;29;20029;-74
2020/12/15 14:48:10;;;;;;;6.10;3.58;;;1.90;99.90;;;;;;4885102;29;20063;-75
2020/12/15 14:50:36;;;;;;;6.22;3.40;;;1.90;99.90;;;;;;4882346;29;20064;-73
2020/12/15 14:53:01;;;;;;;6.22;3.47;;;1.90;99.90;;;;;;4889115;29;20452;-75
2020/12/15 14:55:27;;;;;;;4.97;3.50;;;1.90;99.90;;;;;;4885953;29;20095;-74
2020/12/15 14:57:53;;;;;;;6.60;3.92;;;2.00;99.90;;;;;;4890579;29;20033;-74
2020/12/15 15:00:19;;;;;;;4.85;3.22;;;2.00;99.90;;;;;;4886708;29;20033;-73
2020/12/15 15:02:44;;;;;;;4.95;3.55;;;2.00;99.90;;;;;;4888586;29;20025;-74
2020/12/15 15:05:10;;;;;;;6.75;3.58;;;2.00;99.90;;;;;;4890335;29;20032;-74
2020/12/15 15:07:36;;;;;;;4.60;3.25;;;2.00;99.90;;;;;;4884319;29;20520;-74
2020/12/15 15:10:02;;;;;;;4.80;3.58;;;2.00;99.90;;;;;;4890642;29;20029;-74
2020/12/15 15:12:28;;;;;;;6.10;3.28;;;2.00;99.90;;;;;;4889332;29;20021;-74
2020/12/15 15:14:54;;;;;;;5.65;3.65;;;2.00;99.90;;;;;;4890231;29;20452;-76
2020/12/15 15:17:20;;;;;;;5.57;3.00;;;2.00;99.90;;;;;;4885416;29;20033;-79
2020/12/15 15:19:46;;;;;;;6.28;3.42;;;2.10;99.90;;;;;;4864567;29;20058;-78
2020/12/15 15:22:11;;;;;;;6.82;3.40;;;2.10;99.90;;;;;;4863472;29;20485;-78
2020/12/15 15:24:37;;;;;;;4.35;2.97;;;2.10;99.90;;;;;;4872267;29;20033;-78
2020/12/15 15:27:03;;;;;;;6.20;3.03;;;2.10;99.90;;;;;;4891755;29;20025;-77
2020/12/15 15:29:29;;;;;;;7.25;3.15;;;2.10;99.90;;;;;;4887243;29;20048;-78
2020/12/15 15:31:55;;;;;;;4.97;3.40;;;2.20;99.90;;;;;;4877997;29;20052;-80
2020/12/15 15:34:21;;;;;;;4.63;2.78;;;2.20;99.90;;;;;;4878223;29;20045;-77
2020/12/15 15:36:46;;;;;;;4.20;2.90;;;2.40;99.90;;;;;;4875835;29;20034;-83
2020/12/15 15:39:14;;;;;;;5.20;3.10;;;2.50;99.90;;;;;;4882302;29;20028;-84
2020/12/15 15:41:45;;;;;;;3.30;2.50;;;2.50;99.90;;;;;;4888883;29;20025;-84
2020/12/15 15:44:10;;;;;;;;;;;2.50;99.90;;;;;;4885311;29;20040;-83
2020/12/15 15:46:36;;;;;;;4.22;2.80;;;2.50;99.90;;;;;;4879672;29;19911;-81
2020/12/15 15:49:03;;;;;;;4.55;2.83;;;2.50;99.90;;;;;;4876518;29;20537;-79
2020/12/15 15:51:28;;;;;;;5.47;3.08;;;2.50;99.90;;;;;;4875099;29;20040;-76
2020/12/15 15:53:54;;;;;;;6.25;2.85;;;2.40;99.90;;;;;;4874663;29;20038;-82
2020/12/15 15:56:20;;;;;;;6.20;2.70;;;2.50;99.90;;;;;;4875084;29;20510;-85
2020/12/15 15:58:46;;;;;;;7.55;3.00;;;2.50;99.90;;;;;;4877909;29;20125;-88
2020/12/15 16:01:12;;;;;;;7.70;3.08;;;2.50;99.90;;;;;;4883147;29;20025;-87
2020/12/15 16:03:41;;;;;;;7.80;2.65;;;2.50;99.90;;;;;;4882599;29;20021;-87
2020/12/15 16:06:07;;;;;;;4.88;2.65;;;2.60;99.90;;;;;;4878318;29;20385;-82
2020/12/15 16:08:32;;;;;;;7.75;3.33;;;2.60;99.90;;;;;;4879175;29;20028;-82
2020/12/15 16:10:58;;;;;;;8.80;2.72;;;2.70;99.90;;;;;;4877005;29;20057;-81
2020/12/15 16:13:28;;;;;;;3.72;2.17;;;2.70;99.90;;;;;;4878726;29;20051;-82
2020/12/15 16:15:54;;;;;;;6.88;2.72;;;2.70;99.90;;;;;;4897307;29;20116;-76
2020/12/15 16:18:21;;;;;;;2.00;1.73;;;2.70;99.90;;;;;;4898161;29;20091;-75
2020/12/15 16:20:48;;;;;;;2.30;1.73;;;2.70;99.90;;;;;;4899889;29;20028;-75
2020/12/15 16:23:14;;;;;;;2.58;1.85;;;2.80;99.90;;;;;;4899793;29;20028;-74
2020/12/15 16:25:40;;;;;;;4.82;2.53;;;2.80;99.90;;;;;;4898453;29;20056;-75
2020/12/15 16:28:11;;;;;;;6.90;2.00;;;2.80;99.90;;;;;;4898512;29;20477;-73
2020/12/15 16:30:37;;;;;;;5.13;1.60;;;3.10;99.90;;;;;;4898457;29;20021;-74
2020/12/15 16:33:03;;;;;;;6.55;1.75;;;3.10;99.90;;;;;;4898292;29;20033;-73
2020/12/15 16:35:29;;;;;;;3.72;1.80;;;3.10;99.90;;;;;;4898193;29;20051;-73
2020/12/15 16:37:55;;;;;;;2.10;1.80;;;3.10;99.90;;;;;;4898079;29;20025;-73
2020/12/15 16:40:20;;;;;;;5.47;1.92;;;3.00;99.90;;;;;;4898254;29;20021;-74
2020/12/15 16:42:46;;;;;;;4.13;1.73;;;3.00;99.90;;;;;;4898272;29;20103;-74
2020/12/15 16:45:12;;;;;;;4.70;1.92;;;3.00;99.90;;;;;;4898006;29;20492;-74
2020/12/15 16:47:38;;;;;;;4.05;2.10;;;3.00;99.90;;;;;;4897789;29;20108;-74
2020/12/15 16:50:06;;;;;;;5.35;2.55;;;3.00;99.90;;;;;;4897657;29;20061;-74
2020/12/15 16:52:39;;;;;;;4.75;2.05;;;3.00;99.90;;;;;;4896725;29;20041;-74
2020/12/15 16:55:10;;;;;;;3.70;1.85;;;3.10;99.90;;;;;;4897974;29;20031;-74
2020/12/15 16:57:36;;;;;;;2.10;1.70;;;3.10;99.90;;;;;;4897944;29;20065;-74
2020/12/15 17:00:05;;;;;;;3.42;1.30;;;3.10;99.90;;;;;;4897757;29;20035;-74
2020/12/15 17:02:31;;;;;;;4.13;1.10;;;3.40;99.90;;;;;;4898047;29;20020;-78
2020/12/15 17:04:57;;;;;;;4.55;1.20;;;3.50;99.90;;;;;;4897925;29;20056;-79
2020/12/15 17:07:23;;;;;;;4.00;1.27;;;3.40;99.90;;;;;;4880063;29;20033;-78
2020/12/15 17:09:48;;;;;;;5.20;1.05;;;3.40;99.90;;;;;;4878626;29;20035;-77
2020/12/15 17:12:14;;;;;;;4.15;1.40;;;3.30;99.90;;;;;;4877100;29;20028;-75
2020/12/15 17:14:40;;;;;;;6.57;1.10;;;3.30;99.90;;;;;;4873355;29;20041;-78
2020/12/15 17:17:06;;;;;;;1.90;1.00;;;3.30;99.90;;;;;;4878419;29;20597;-74
2020/12/15 17:19:31;;;;;;;1.83;1.20;;;3.30;99.90;;;;;;4878593;29;20061;-73
2020/12/15 17:21:57;;;;;;;1.42;1.10;;;3.30;99.90;;;;;;4874231;29;20085;-74
2020/12/15 17:24:23;;;;;;;2.20;0.90;;;3.30;99.90;;;;;;4874946;29;20559;-75
2020/12/15 17:26:48;;;;;;;2.60;1.00;;;3.30;99.90;;;;;;4875142;29;20116;-73
2020/12/15 17:29:14;;;;;;;3.50;1.00;;;3.30;99.90;;;;;;4878350;29;20077;-75
2020/12/15 17:31:40;;;;;;;39.08;17.35;;;3.30;99.90;;;;;;4873122;29;20034;-74
2020/12/15 17:34:06;;;;;;;20.30;9.32;;;3.30;99.90;;;;;;4871445;29;20548;-75
2020/12/15 17:36:32;;;;;;;10.13;4.68;;;3.40;99.90;;;;;;4878494;29;20027;-75
2020/12/15 17:38:58;;;;;;;5.50;1.58;;;3.40;99.90;;;;;;4878300;29;20442;-75
2020/12/15 17:41:23;;;;;;;6.55;1.35;;;3.40;99.90;;;;;;4877928;29;20439;-75
2020/12/15 17:43:50;;;;;;;9.63;1.80;;;3.30;99.90;;;;;;4878156;29;20033;-75
2020/12/15 17:46:17;;;;;;;7.15;1.80;;;3.30;99.90;;;;;;4877701;29;20045;-75
2020/12/15 17:48:43;;;;;;;5.57;2.25;;;3.30;99.90;;;;;;4878042;29;20037;-75
2020/12/15 17:51:09;;;;;;;7.03;2.13;;;3.30;99.90;;;;;;4877871;29;20366;-75
2020/12/15 17:53:35;;;;;;;10.05;3.33;;;3.20;99.90;;;;;;4877695;29;20037;-75
2020/12/15 17:56:00;;;;;;;5.85;2.65;;;3.30;99.90;;;;;;4877770;29;20025;-75
2020/12/15 17:58:26;;;;;;;9.57;4.28;;;3.30;99.90;;;;;;4877969;29;20504;-74
2020/12/15 18:00:53;;;;;;;6.05;2.67;;;3.30;99.90;;;;;;4877146;29;20025;-75
2020/12/15 18:03:20;;;;;;;4.20;1.60;;;3.30;99.90;;;;;;4877800;29;20033;-74
2020/12/15 18:05:46;;;;;;;3.75;1.55;;;3.20;99.90;;;;;;4876862;29;20025;-75
2020/12/15 18:08:12;;;;;;;6.78;1.35;;;3.20;99.90;;;;;;4877810;29;20597;-75
2020/12/15 18:10:38;;;;;;;4.70;1.40;;;3.20;99.90;;;;;;4877786;29;20569;-74